Time;durP1;ratioP1;P1;durP2;ratioP2;P2;SDS_P1;SDS_P2;PMS_P1;PMS_P2;Temp;Humidity;BMP_temperature;BMP_pressure;BME280_temperature;BME280_humidity;BME280_pressure;Samples;Min_cycle;Max_cycle;Signal;HPM_P1;HPM_P2
2022/10/26 00:00:49;;;;;;;15.55;9.50;;;11.40;99.90;;;;;;4976598;28;20046;-62
2022/10/26 00:03:15;;;;;;;15.10;8.68;;;11.90;99.90;;;;;;4976002;28;20055;-63
2022/10/26 00:05:41;;;;;;;17.45;8.55;;;11.50;99.90;;;;;;4976199;28;20034;-62
2022/10/26 00:08:08;;;;;;;16.83;9.43;;;11.90;99.90;;;;;;4972282;28;20039;-62
2022/10/26 00:10:35;;;;;;;17.70;8.60;;;12.90;99.90;;;;;;4956513;29;20336;-62
2022/10/26 00:13:01;;;;;;;15.00;8.63;;;12.50;99.90;;;;;;4956581;29;20058;-62
2022/10/26 00:15:26;;;;;;;17.33;8.93;;;11.50;99.90;;;;;;4939082;29;22006;-62
2022/10/26 00:17:52;;;;;;;12.43;8.10;;;12.80;99.90;;;;;;4956522;29;20083;-62
2022/10/26 00:20:18;;;;;;;16.50;8.40;;;12.30;99.90;;;;;;4965148;28;20039;-62
2022/10/26 00:22:43;;;;;;;14.82;8.25;;;11.40;99.90;;;;;;4975797;28;20039;-62
2022/10/26 00:25:09;;;;;;;19.45;8.40;;;12.00;99.90;;;;;;4975659;28;20537;-62
2022/10/26 00:27:34;;;;;;;13.45;8.43;;;12.70;99.90;;;;;;4968132;28;20065;-62
2022/10/26 00:30:01;;;;;;;17.20;8.52;;;11.30;99.90;;;;;;4968402;28;20041;-62
2022/10/26 00:32:27;;;;;;;11.75;7.93;;;12.50;99.90;;;;;;4975572;28;20089;-62
2022/10/26 00:34:53;;;;;;;12.00;8.25;;;11.90;99.90;;;;;;4975314;28;20512;-62
2022/10/26 00:37:18;;;;;;;13.55;8.20;;;11.30;99.90;;;;;;4975523;28;20039;-62
2022/10/26 00:39:44;;;;;;;12.32;7.18;;;12.40;99.90;;;;;;4974122;28;20433;-62
2022/10/26 00:42:19;;;;;;;11.32;7.03;;;12.10;99.90;;;;;;4975655;28;20507;-62
2022/10/26 00:44:47;;;;;;;11.40;7.57;;;11.10;99.90;;;;;;4975294;28;20500;-63
2022/10/26 00:47:23;;;;;;;17.58;7.47;;;11.20;99.90;;;;;;4957803;28;20046;-62
2022/10/26 00:49:51;;;;;;;10.27;7.20;;;11.70;99.90;;;;;;4967340;28;20505;-62
2022/10/26 00:52:19;;;;;;;10.93;7.40;;;11.10;99.90;;;;;;4938671;29;20494;-62
2022/10/26 00:54:45;;;;;;;13.10;6.85;;;11.10;99.90;;;;;;4955765;29;20075;-62
2022/10/26 00:57:14;;;;;;;13.13;7.78;;;11.10;99.90;;;;;;4956048;29;20076;-62
2022/10/26 00:59:41;;;;;;;13.95;6.45;;;12.20;99.90;;;;;;4955857;29;20046;-63
2022/10/26 01:02:07;;;;;;;11.05;6.78;;;11.90;99.90;;;;;;4955698;29;20512;-62
2022/10/26 01:04:33;;;;;;;10.88;7.20;;;12.50;99.90;;;;;;4960276;28;20057;-62
2022/10/26 01:07:02;;;;;;;12.05;7.10;;;11.20;99.90;;;;;;4974954;28;20524;-62
2022/10/26 01:09:28;;;;;;;8.95;5.38;;;12.60;99.90;;;;;;4974946;28;20560;-62
2022/10/26 01:11:53;;;;;;;13.32;6.00;;;11.60;99.90;;;;;;4974926;28;20034;-62
2022/10/26 01:14:20;;;;;;;11.13;7.18;;;11.30;99.90;;;;;;4974722;28;20455;-62
2022/10/26 01:16:45;;;;;;;12.68;6.88;;;12.50;99.90;;;;;;4974520;28;20130;-62
2022/10/26 01:19:31;;;;;;;12.50;6.95;;;11.50;99.90;;;;;;4974734;28;20121;-62
2022/10/26 01:22:01;;;;;;;8.57;6.90;;;11.60;99.90;;;;;;4954595;29;20493;-62
2022/10/26 01:25:04;;;;;;;13.48;6.95;;;12.40;99.90;;;;;;4955342;29;20179;-63
2022/10/26 01:27:34;;;;;;;11.63;6.65;;;11.70;99.90;;;;;;4964240;28;20129;-62
2022/10/26 01:30:11;;;;;;;20.02;7.13;;;11.50;99.90;;;;;;4974396;28;20050;-63
2022/10/26 01:33:18;;;;;;;11.10;7.10;;;12.50;99.90;;;;;;4957226;28;20047;-63
2022/10/26 01:36:08;;;;;;;10.25;6.30;;;11.50;99.90;;;;;;4974273;28;20485;-62
2022/10/26 01:38:46;;;;;;;11.45;6.03;;;11.60;99.90;;;;;;4974368;28;20043;-62
2022/10/26 01:41:25;;;;;;;15.38;7.47;;;11.70;99.90;;;;;;4974294;28;20097;-62
2022/10/26 01:44:00;;;;;;;11.95;7.47;;;11.70;99.90;;;;;;4974329;28;20150;-63
2022/10/26 01:46:28;;;;;;;12.85;6.57;;;12.30;99.90;;;;;;4957150;28;20042;-63
2022/10/26 01:48:58;;;;;;;11.80;7.38;;;12.20;99.90;;;;;;4973408;28;20086;-63
2022/10/26 01:51:25;;;;;;;13.45;7.20;;;12.50;99.90;;;;;;4974099;28;20042;-62
2022/10/26 01:53:50;;;;;;;10.85;6.90;;;12.20;99.90;;;;;;4956612;28;20046;-62
2022/10/26 01:56:39;;;;;;;13.05;7.20;;;12.30;99.90;;;;;;4974105;28;20046;-62
2022/10/26 01:59:31;;;;;;;12.32;8.00;;;12.00;99.90;;;;;;4973827;28;20093;-62
2022/10/26 02:02:33;;;;;;;12.25;7.10;;;11.00;99.90;;;;;;4973413;28;20058;-62
2022/10/26 02:05:11;;;;;;;10.85;6.40;;;12.50;99.90;;;;;;4972058;28;20053;-62
2022/10/26 02:07:59;;;;;;;12.80;6.47;;;12.30;99.90;;;;;;4973808;28;20408;-63
2022/10/26 02:10:48;;;;;;;11.20;6.60;;;11.90;99.90;;;;;;4958567;28;20078;-62
2022/10/26 02:13:28;;;;;;;12.38;7.57;;;11.10;99.90;;;;;;4973596;28;20121;-62
2022/10/26 02:15:54;;;;;;;15.50;7.57;;;12.20;99.90;;;;;;4956018;28;20054;-62
2022/10/26 02:18:25;;;;;;;16.42;7.82;;;10.90;99.90;;;;;;4973779;28;20133;-63
2022/10/26 02:20:56;;;;;;;12.55;7.28;;;10.90;99.90;;;;;;4956158;28;20050;-62
2022/10/26 02:23:25;;;;;;;11.77;7.78;;;11.20;99.90;;;;;;4973459;28;20051;-62
2022/10/26 02:25:55;;;;;;;9.75;6.63;;;11.50;99.90;;;;;;4971717;28;20112;-62
2022/10/26 02:28:26;;;;;;;16.08;8.38;;;10.70;99.90;;;;;;4954056;29;20043;-62
2022/10/26 02:30:55;;;;;;;9.73;7.50;;;11.30;99.90;;;;;;4954356;29;20073;-62
2022/10/26 02:33:22;;;;;;;13.50;8.57;;;11.50;99.90;;;;;;4954001;29;20036;-62
2022/10/26 02:35:51;;;;;;;14.85;8.93;;;11.50;99.90;;;;;;4971846;28;20065;-62
2022/10/26 02:38:18;;;;;;;11.52;8.23;;;11.10;99.90;;;;;;4973113;28;20043;-63
2022/10/26 02:40:47;;;;;;;17.50;9.43;;;10.60;99.90;;;;;;4973306;28;20042;-62
2022/10/26 02:43:15;;;;;;;11.35;8.45;;;11.90;99.90;;;;;;4972992;28;20051;-63
2022/10/26 02:45:46;;;;;;;14.20;8.82;;;12.10;99.90;;;;;;4973016;28;20073;-62
2022/10/26 02:48:12;;;;;;;16.65;8.98;;;10.90;99.90;;;;;;4972624;28;20069;-62
2022/10/26 02:50:45;;;;;;;15.73;9.70;;;10.80;99.90;;;;;;4973324;28;20042;-62
2022/10/26 02:53:24;;;;;;;17.42;9.52;;;12.00;99.90;;;;;;4972917;28;20093;-62
2022/10/26 02:55:50;;;;;;;16.70;9.70;;;12.10;99.90;;;;;;4973348;28;20043;-62
2022/10/26 02:58:21;;;;;;;16.20;10.88;;;12.00;99.90;;;;;;4972868;28;20061;-62
2022/10/26 03:00:48;;;;;;;17.17;9.02;;;11.90;99.90;;;;;;4973162;28;20053;-63
2022/10/26 03:03:15;;;;;;;21.17;10.20;;;12.00;99.90;;;;;;4972365;28;20057;-62
2022/10/26 03:05:42;;;;;;;14.70;10.00;;;11.40;99.90;;;;;;4972951;28;20420;-62
2022/10/26 03:08:07;;;;;;;14.60;9.40;;;10.70;99.90;;;;;;4943255;29;20464;-62
2022/10/26 03:10:38;;;;;;;15.52;9.40;;;12.10;99.90;;;;;;4936243;29;20128;-62
2022/10/26 03:13:04;;;;;;;13.65;9.45;;;10.90;99.90;;;;;;4953505;29;20043;-62
2022/10/26 03:15:29;;;;;;;18.48;10.52;;;12.20;99.90;;;;;;4953358;29;20171;-63
2022/10/26 03:17:55;;;;;;;16.35;9.95;;;11.70;99.90;;;;;;4953557;29;20055;-62
2022/10/26 03:20:20;;;;;;;15.10;10.05;;;12.20;99.90;;;;;;4962332;28;20046;-62
2022/10/26 03:22:47;;;;;;;18.05;9.63;;;12.20;99.90;;;;;;4972690;28;20065;-62
2022/10/26 03:25:14;;;;;;;17.10;9.93;;;11.80;99.90;;;;;;4972782;28;20047;-62
2022/10/26 03:27:40;;;;;;;19.40;10.70;;;11.00;99.90;;;;;;4955626;28;20504;-62
2022/10/26 03:30:06;;;;;;;15.27;9.90;;;10.90;99.90;;;;;;4967164;28;20118;-63
2022/10/26 03:32:32;;;;;;;15.77;10.65;;;12.20;99.90;;;;;;4953208;29;20452;-62
2022/10/26 03:34:57;;;;;;;13.82;9.80;;;11.20;99.90;;;;;;4964344;28;20126;-63
2022/10/26 03:37:23;;;;;;;16.95;10.98;;;12.30;99.90;;;;;;4972454;28;20031;-63
2022/10/26 03:39:48;;;;;;;17.38;11.10;;;12.00;99.90;;;;;;4972304;28;20042;-62
2022/10/26 03:42:14;;;;;;;23.60;10.15;;;11.60;99.90;;;;;;4972740;28;20041;-62
2022/10/26 03:44:39;;;;;;;18.08;9.68;;;12.10;99.90;;;;;;4972438;28;20043;-62
2022/10/26 03:47:05;;;;;;;15.07;10.73;;;12.00;99.90;;;;;;4972380;28;20035;-62
2022/10/26 03:49:30;;;;;;;16.08;10.10;;;11.00;99.90;;;;;;4972468;28;20049;-62
2022/10/26 03:51:56;;;;;;;21.27;11.30;;;11.20;99.90;;;;;;4970692;28;20039;-62
2022/10/26 03:54:21;;;;;;;17.30;11.55;;;11.10;99.90;;;;;;4972175;28;20117;-62
2022/10/26 03:56:47;;;;;;;16.27;10.93;;;12.20;99.90;;;;;;4972668;28;20039;-62
2022/10/26 03:59:13;;;;;;;23.77;11.75;;;11.00;99.90;;;;;;4972477;28;20526;-62
2022/10/26 04:01:39;;;;;;;15.50;10.38;;;11.40;99.90;;;;;;4955237;28;20086;-63
2022/10/26 04:04:04;;;;;;;20.98;11.32;;;11.80;99.90;;;;;;4972281;28;20039;-62
2022/10/26 04:06:30;;;;;;;15.57;10.43;;;11.30;99.90;;;;;;4972319;28;20042;-62
2022/10/26 04:09:01;;;;;;;18.35;9.77;;;11.70;99.90;;;;;;4972099;28;20053;-63
2022/10/26 04:11:27;;;;;;;19.58;10.85;;;12.50;99.90;;;;;;4954865;28;20113;-62
2022/10/26 04:13:52;;;;;;;19.75;10.85;;;11.20;99.90;;;;;;4972901;28;20039;-63
2022/10/26 04:16:18;;;;;;;18.05;10.65;;;11.30;99.90;;;;;;4954643;29;20051;-62
2022/10/26 04:18:44;;;;;;;18.60;11.88;;;12.40;99.90;;;;;;4956586;29;20114;-62
2022/10/26 04:21:10;;;;;;;19.20;10.38;;;12.20;99.90;;;;;;4958394;28;20042;-63
2022/10/26 04:23:36;;;;;;;16.90;11.18;;;11.40;99.90;;;;;;4975502;28;20055;-63
2022/10/26 04:26:04;;;;;;;17.25;10.35;;;11.30;99.90;;;;;;4970278;28;20061;-63
2022/10/26 04:28:30;;;;;;;15.00;9.43;;;12.40;99.90;;;;;;4943935;29;20086;-63
2022/10/26 04:30:55;;;;;;;19.45;9.88;;;11.70;99.90;;;;;;4968614;28;20046;-62
2022/10/26 04:33:21;;;;;;;20.45;11.25;;;12.80;99.90;;;;;;4958297;28;20489;-63
2022/10/26 04:35:47;;;;;;;14.63;10.25;;;12.40;99.90;;;;;;4975693;28;20030;-63
2022/10/26 04:38:12;;;;;;;20.67;10.25;;;12.90;99.90;;;;;;4971066;28;20089;-62
2022/10/26 04:40:38;;;;;;;15.93;9.75;;;11.40;99.90;;;;;;4967542;28;20071;-62
2022/10/26 04:43:04;;;;;;;16.90;9.05;;;12.90;99.90;;;;;;4956071;28;20042;-63
2022/10/26 04:45:29;;;;;;;13.50;9.48;;;13.00;99.90;;;;;;4958451;28;20447;-63
2022/10/26 04:48:08;;;;;;;15.15;9.00;;;12.40;99.90;;;;;;4975218;28;20151;-62
2022/10/26 04:50:34;;;;;;;13.55;9.77;;;12.80;99.90;;;;;;4957914;28;20610;-62
2022/10/26 04:53:00;;;;;;;14.27;10.48;;;11.60;99.90;;;;;;4975328;28;20038;-62
2022/10/26 04:55:25;;;;;;;15.88;8.98;;;13.10;99.90;;;;;;4966032;28;20039;-62
2022/10/26 04:57:51;;;;;;;17.05;9.13;;;12.90;99.90;;;;;;4975319;28;20042;-62
2022/10/26 05:00:16;;;;;;;13.90;8.57;;;11.60;99.90;;;;;;4975101;28;20046;-63
2022/10/26 05:02:42;;;;;;;12.82;8.60;;;13.20;99.90;;;;;;4975073;28;20053;-63
2022/10/26 05:05:08;;;;;;;10.77;7.85;;;13.10;99.90;;;;;;4975491;28;20105;-63
2022/10/26 05:07:34;;;;;;;14.90;10.10;;;11.70;99.90;;;;;;4957634;28;20068;-63
2022/10/26 05:09:59;;;;;;;15.30;11.02;;;13.30;99.90;;;;;;4975054;28;20042;-63
2022/10/26 05:12:25;;;;;;;17.45;10.68;;;13.20;99.90;;;;;;4961310;28;20449;-63
2022/10/26 05:14:50;;;;;;;17.42;11.02;;;13.10;99.90;;;;;;4955498;29;20035;-62
2022/10/26 05:17:16;;;;;;;16.77;10.50;;;12.70;99.90;;;;;;4955104;28;20079;-63
2022/10/26 05:19:41;;;;;;;21.85;9.05;;;12.00;99.90;;;;;;4959143;28;20043;-62
2022/10/26 05:22:07;;;;;;;18.77;10.13;;;13.20;99.90;;;;;;4974443;28;20069;-62
2022/10/26 05:24:32;;;;;;;19.02;12.07;;;12.40;99.90;;;;;;4974784;28;20047;-62
2022/10/26 05:26:59;;;;;;;20.88;10.85;;;12.60;99.90;;;;;;4974187;28;20471;-62
2022/10/26 05:29:24;;;;;;;18.30;10.57;;;12.20;99.90;;;;;;4974596;28;20493;-63
2022/10/26 05:31:50;;;;;;;19.15;10.93;;;13.30;99.90;;;;;;4974557;28;20050;-62
2022/10/26 05:34:16;;;;;;;19.58;11.60;;;13.20;99.90;;;;;;4947661;29;20094;-63
2022/10/26 05:36:41;;;;;;;17.67;12.40;;;13.20;99.90;;;;;;4955693;28;20538;-62
2022/10/26 05:39:07;;;;;;;18.95;11.73;;;13.20;99.90;;;;;;4961247;28;20035;-63
2022/10/26 05:41:33;;;;;;;17.98;11.30;;;13.00;99.90;;;;;;4941057;28;20440;-63
2022/10/26 05:43:58;;;;;;;15.73;11.07;;;12.10;99.90;;;;;;4974262;28;20071;-63
2022/10/26 05:46:24;;;;;;;14.45;9.27;;;13.30;99.90;;;;;;4974179;28;20031;-63
2022/10/26 05:48:49;;;;;;;18.63;12.55;;;13.30;99.90;;;;;;4974032;28;20058;-62
2022/10/26 05:51:15;;;;;;;16.30;10.30;;;13.20;99.90;;;;;;4967843;28;20042;-63
2022/10/26 05:53:40;;;;;;;22.67;11.23;;;11.80;99.90;;;;;;4968311;28;20121;-63
2022/10/26 05:56:23;;;;;;;16.13;10.45;;;13.20;99.90;;;;;;4961957;28;20405;-63
2022/10/26 05:58:49;;;;;;;18.10;9.95;;;13.30;99.90;;;;;;4964621;28;20112;-62
2022/10/26 06:01:34;;;;;;;17.17;10.10;;;12.40;99.90;;;;;;4965738;28;20111;-62
2022/10/26 06:04:17;;;;;;;19.23;11.25;;;13.20;99.90;;;;;;4968569;28;20047;-62
2022/10/26 06:06:46;;;;;;;17.63;11.02;;;13.10;99.90;;;;;;4974045;28;20049;-63
2022/10/26 06:09:13;;;;;;;20.38;10.45;;;12.60;99.90;;;;;;4958156;28;20047;-62
2022/10/26 06:11:39;;;;;;;19.70;11.07;;;13.20;99.90;;;;;;4937084;29;20082;-62
2022/10/26 06:14:06;;;;;;;17.95;10.13;;;11.80;99.90;;;;;;4954225;28;20032;-63
2022/10/26 06:16:51;;;;;;;16.23;9.90;;;12.60;99.90;;;;;;4946574;28;20051;-64
2022/10/26 06:19:51;;;;;;;20.23;11.50;;;13.40;99.90;;;;;;4964693;28;20046;-64
2022/10/26 06:22:52;;;;;;;17.42;11.35;;;11.80;99.90;;;;;;4953705;28;20051;-64
2022/10/26 06:25:48;;;;;;;17.38;10.93;;;11.90;99.90;;;;;;4965542;28;20528;-63
2022/10/26 06:28:44;;;;;;;16.73;11.38;;;12.00;99.90;;;;;;4971912;28;20039;-64
2022/10/26 06:31:12;;;;;;;18.75;11.40;;;12.80;99.90;;;;;;4962148;28;20057;-64
2022/10/26 06:33:37;;;;;;;16.60;11.27;;;12.30;99.90;;;;;;4973495;28;20054;-64
2022/10/26 06:36:22;;;;;;;16.17;10.93;;;12.70;99.90;;;;;;4961569;28;20057;-64
2022/10/26 06:38:57;;;;;;;24.20;10.90;;;12.30;99.90;;;;;;4959041;28;20050;-63
2022/10/26 06:41:23;;;;;;;20.10;12.10;;;13.50;99.90;;;;;;4962880;28;20051;-63
2022/10/26 06:43:49;;;;;;;14.73;10.00;;;13.40;99.90;;;;;;4954385;28;20039;-63
2022/10/26 06:46:40;;;;;;;18.88;10.55;;;12.90;99.90;;;;;;4965735;28;20042;-63
2022/10/26 06:49:11;;;;;;;17.25;9.68;;;12.40;99.90;;;;;;4954382;28;20121;-63
2022/10/26 06:52:00;;;;;;;17.98;9.88;;;13.40;99.90;;;;;;4966039;28;20060;-63
2022/10/26 06:54:45;;;;;;;19.90;10.88;;;12.30;99.90;;;;;;4972980;28;20105;-63
2022/10/26 06:57:12;;;;;;;20.20;10.35;;;13.80;99.90;;;;;;4955330;28;20043;-63
2022/10/26 06:59:45;;;;;;;17.48;11.40;;;13.80;99.90;;;;;;4973110;28;20031;-63
2022/10/26 07:02:11;;;;;;;16.20;8.68;;;12.70;99.90;;;;;;4953884;29;20130;-63
2022/10/26 07:04:37;;;;;;;18.50;9.30;;;13.80;99.90;;;;;;4966961;28;20126;-63
2022/10/26 07:07:03;;;;;;;14.00;8.98;;;13.60;99.90;;;;;;4973483;28;20089;-63
2022/10/26 07:09:28;;;;;;;16.55;9.02;;;12.40;99.90;;;;;;4973170;28;20038;-63
2022/10/26 07:11:54;;;;;;;15.48;8.50;;;13.40;99.90;;;;;;4955203;28;20079;-63
2022/10/26 07:14:19;;;;;;;18.83;10.40;;;12.70;99.90;;;;;;4954018;28;20046;-63
2022/10/26 07:16:45;;;;;;;17.00;8.80;;;14.10;99.90;;;;;;4953666;29;20535;-63
2022/10/26 07:19:11;;;;;;;14.43;9.00;;;13.40;99.90;;;;;;4953967;28;20449;-63
2022/10/26 07:21:36;;;;;;;16.75;9.00;;;14.20;99.90;;;;;;4972244;28;20039;-63
2022/10/26 07:24:02;;;;;;;18.27;8.90;;;14.00;99.90;;;;;;4972827;28;20408;-63
2022/10/26 07:26:27;;;;;;;12.52;8.25;;;13.70;99.90;;;;;;4955688;28;20396;-63
2022/10/26 07:28:53;;;;;;;14.32;8.35;;;12.70;99.90;;;;;;4967600;28;20108;-63
2022/10/26 07:31:19;;;;;;;14.00;8.75;;;13.10;99.90;;;;;;4958792;28;20050;-63
2022/10/26 07:33:45;;;;;;;20.23;8.27;;;14.20;99.90;;;;;;4968531;28;20039;-63
2022/10/26 07:36:11;;;;;;;14.70;8.48;;;12.70;99.90;;;;;;4957634;28;20046;-63
2022/10/26 07:38:37;;;;;;;15.15;9.52;;;13.00;99.90;;;;;;4969032;28;20039;-64
2022/10/26 07:41:05;;;;;;;13.88;8.20;;;12.80;99.90;;;;;;4947391;28;20031;-63
2022/10/26 07:43:30;;;;;;;12.13;7.15;;;14.30;99.90;;;;;;4972398;28;20066;-63
2022/10/26 07:45:56;;;;;;;13.25;7.78;;;13.30;99.90;;;;;;4972140;28;20046;-64
2022/10/26 07:48:21;;;;;;;12.75;6.30;;;14.00;99.90;;;;;;4960857;28;20086;-64
2022/10/26 07:50:47;;;;;;;10.05;6.50;;;14.30;99.90;;;;;;4946552;28;20046;-63
2022/10/26 07:53:13;;;;;;;16.27;9.15;;;13.40;99.90;;;;;;4972315;28;20556;-63
2022/10/26 07:55:39;;;;;;;17.17;9.25;;;13.80;99.90;;;;;;4976567;28;20125;-63
2022/10/26 07:58:04;;;;;;;15.50;9.15;;;13.80;99.90;;;;;;4964383;28;20442;-63
2022/10/26 08:00:30;;;;;;;14.98;9.18;;;13.70;99.90;;;;;;4965220;28;20066;-63
2022/10/26 08:02:56;;;;;;;15.30;8.88;;;14.20;99.90;;;;;;4961545;28;20046;-64
2022/10/26 08:05:21;;;;;;;17.52;7.85;;;15.40;99.90;;;;;;4967331;28;20043;-64
2022/10/26 08:07:47;;;;;;;12.23;6.93;;;14.50;99.90;;;;;;4965248;28;20094;-64
2022/10/26 08:10:13;;;;;;;11.63;5.65;;;15.50;99.90;;;;;;4960211;28;20129;-64
2022/10/26 08:12:40;;;;;;;12.48;6.50;;;14.80;99.90;;;;;;4967605;28;20054;-64
2022/10/26 08:15:06;;;;;;;14.57;6.55;;;15.30;99.90;;;;;;4958572;28;20484;-64
2022/10/26 08:17:32;;;;;;;11.25;5.80;;;14.90;99.90;;;;;;4966956;28;20571;-64
2022/10/26 08:19:58;;;;;;;10.73;4.93;;;15.60;99.90;;;;;;4952243;28;20130;-64
2022/10/26 08:22:23;;;;;;;8.80;4.80;;;15.10;99.90;;;;;;4972979;28;20038;-64
2022/10/26 08:24:49;;;;;;;10.30;5.70;;;15.90;99.90;;;;;;4974302;28;20046;-64
2022/10/26 08:27:14;;;;;;;8.57;5.13;;;15.90;99.90;;;;;;4953405;29;20067;-64
2022/10/26 08:29:41;;;;;;;12.05;6.18;;;14.90;99.90;;;;;;4966817;28;20046;-63
2022/10/26 08:32:07;;;;;;;7.95;4.72;;;14.90;99.90;;;;;;4962801;28;20051;-63
2022/10/26 08:34:33;;;;;;;18.35;6.80;;;15.80;99.90;;;;;;4941672;28;20126;-63
2022/10/26 08:36:58;;;;;;;9.68;5.40;;;15.40;99.90;;;;;;4958102;28;20094;-63
2022/10/26 08:39:27;;;;;;;7.47;4.60;;;15.50;99.90;;;;;;4973600;28;20050;-63
2022/10/26 08:42:00;;;;;;;14.55;5.70;;;15.50;99.90;;;;;;4974339;28;20047;-64
2022/10/26 08:45:01;;;;;;;11.07;5.80;;;15.60;99.90;;;;;;4957400;28;20435;-65
2022/10/26 08:47:36;;;;;;;11.93;5.38;;;16.20;99.90;;;;;;4933065;28;20047;-64
2022/10/26 08:50:10;;;;;;;8.80;5.28;;;16.70;99.90;;;;;;4955589;28;20070;-64
2022/10/26 08:52:46;;;;;;;9.75;4.95;;;17.00;99.90;;;;;;4966166;28;20070;-62
2022/10/26 08:55:17;;;;;;;15.25;4.13;;;16.20;99.90;;;;;;4964935;28;20035;-62
2022/10/26 08:57:46;;;;;;;13.40;5.28;;;16.40;99.90;;;;;;4939115;29;20047;-64
2022/10/26 09:00:13;;;;;;;6.88;3.70;;;16.40;99.90;;;;;;4956955;28;20039;-64
2022/10/26 09:02:39;;;;;;;11.90;5.47;;;16.70;99.90;;;;;;4955810;29;20070;-64
2022/10/26 09:05:15;;;;;;;14.90;5.28;;;16.50;99.90;;;;;;4956121;29;20043;-64
2022/10/26 09:07:47;;;;;;;;;;;16.50;99.90;;;;;;4956243;29;20043;-64
2022/10/26 09:10:26;;;;;;;11.25;5.70;;;16.30;99.90;;;;;;4955923;29;19918;-65
2022/10/26 09:13:34;;;;;;;8.43;4.40;;;17.30;99.90;;;;;;4955844;29;20102;-65
2022/10/26 09:16:25;;;;;;;8.20;4.63;;;16.60;99.90;;;;;;4954343;28;20063;-64
2022/10/26 09:19:05;;;;;;;9.73;4.68;;;16.80;99.90;;;;;;4972440;28;20073;-65
2022/10/26 09:21:50;;;;;;;11.13;4.18;;;17.40;99.90;;;;;;4975016;28;20045;-64
2022/10/26 09:24:29;;;;;;;9.95;3.97;;;17.00;99.90;;;;;;4938120;29;20058;-64
2022/10/26 09:27:14;;;;;;;11.82;4.80;;;16.70;99.90;;;;;;4956004;29;20508;-64
2022/10/26 09:29:41;;;;;;;10.18;4.65;;;17.10;99.90;;;;;;4955525;29;20036;-65
2022/10/26 09:32:19;;;;;;;8.52;3.90;;;17.20;99.90;;;;;;4955643;29;20094;-64
2022/10/26 09:34:58;;;;;;;8.20;4.43;;;16.90;99.90;;;;;;4955583;29;20051;-64
2022/10/26 09:37:28;;;;;;;13.10;4.93;;;16.80;99.90;;;;;;4940413;28;20058;-65
2022/10/26 09:40:03;;;;;;;7.50;4.63;;;17.50;99.90;;;;;;4938269;29;20074;-65
2022/10/26 09:42:43;;;;;;;9.60;4.82;;;17.20;99.90;;;;;;4962326;28;20058;-64
2022/10/26 09:45:43;;;;;;;11.30;4.25;;;17.20;99.90;;;;;;4974380;28;20051;-64
2022/10/26 09:48:31;;;;;;;5.47;3.78;;;17.40;99.90;;;;;;4969268;28;20078;-65
2022/10/26 09:50:58;;;;;;;10.00;4.03;;;17.20;99.90;;;;;;4963957;28;20038;-62
2022/10/26 09:53:24;;;;;;;8.40;3.80;;;17.70;99.90;;;;;;4955094;28;20047;-62
2022/10/26 09:56:02;;;;;;;5.93;3.17;;;17.50;99.90;;;;;;4954892;29;20054;-62
2022/10/26 09:58:31;;;;;;;10.70;3.28;;;17.40;99.90;;;;;;4956025;28;20039;-64
2022/10/26 10:00:57;;;;;;;3.92;2.63;;;17.70;99.90;;;;;;4962975;28;20051;-64
2022/10/26 10:03:26;;;;;;;6.65;3.08;;;17.80;99.90;;;;;;4960825;28;20038;-65
2022/10/26 10:05:52;;;;;;;7.80;3.20;;;17.60;99.90;;;;;;4956445;28;20042;-64
2022/10/26 10:08:21;;;;;;;6.43;3.13;;;18.00;99.90;;;;;;4959268;28;20118;-64
2022/10/26 10:10:58;;;;;;;10.88;3.45;;;17.40;99.90;;;;;;4974440;28;20035;-64
2022/10/26 10:13:26;;;;;;;8.07;3.45;;;17.80;99.90;;;;;;4956927;28;20409;-64
2022/10/26 10:16:23;;;;;;;12.20;3.30;;;17.80;99.90;;;;;;4955508;28;20059;-64
2022/10/26 10:18:58;;;;;;;4.97;2.83;;;17.30;99.90;;;;;;4972376;28;20046;-64
2022/10/26 10:21:37;;;;;;;7.70;2.80;;;17.20;99.90;;;;;;4974020;28;20481;-64
2022/10/26 10:24:20;;;;;;;7.18;3.08;;;17.80;99.90;;;;;;4971773;28;20034;-64
2022/10/26 10:26:57;;;;;;;6.60;3.08;;;17.50;99.90;;;;;;4971228;28;20879;-65
2022/10/26 10:29:28;;;;;;;8.65;3.03;;;17.50;99.90;;;;;;4954586;28;20492;-64
2022/10/26 10:31:58;;;;;;;9.63;3.15;;;17.50;99.90;;;;;;4973472;28;20039;-65
2022/10/26 10:34:24;;;;;;;5.25;3.25;;;18.10;99.90;;;;;;4966928;28;20055;-65
2022/10/26 10:36:50;;;;;;;7.32;3.40;;;18.10;99.90;;;;;;4960781;28;20034;-65
2022/10/26 10:39:38;;;;;;;5.63;2.80;;;18.10;99.90;;;;;;4962755;28;20087;-65
2022/10/26 10:42:13;;;;;;;5.85;3.28;;;18.20;99.90;;;;;;4969776;28;20125;-65
2022/10/26 10:44:38;;;;;;;7.78;3.15;;;18.10;99.90;;;;;;4962485;28;20538;-65
2022/10/26 10:47:06;;;;;;;11.27;3.55;;;18.30;99.90;;;;;;4972693;28;20121;-65
2022/10/26 10:49:32;;;;;;;6.90;3.40;;;17.90;99.90;;;;;;4963733;28;20050;-65
2022/10/26 10:51:59;;;;;;;12.68;3.33;;;18.10;99.90;;;;;;4964630;28;20074;-65
2022/10/26 10:54:33;;;;;;;9.55;3.50;;;18.60;99.90;;;;;;4970541;28;20511;-65
2022/10/26 10:57:17;;;;;;;6.38;3.40;;;18.60;99.90;;;;;;4939066;28;20211;-66
2022/10/26 10:59:59;;;;;;;5.10;2.78;;;18.20;99.90;;;;;;4968055;28;20035;-66
2022/10/26 11:02:56;;;;;;;7.32;2.85;;;18.60;99.90;;;;;;4973276;28;20081;-65
2022/10/26 11:06:04;;;;;;;6.07;3.50;;;18.10;99.90;;;;;;4959200;28;20047;-65
2022/10/26 11:08:56;;;;;;;6.57;2.80;;;18.00;99.90;;;;;;4954899;28;20043;-65
2022/10/26 11:11:34;;;;;;;9.20;3.70;;;18.10;99.90;;;;;;4947650;28;20051;-65
2022/10/26 11:14:11;;;;;;;9.15;3.65;;;18.40;99.90;;;;;;4960709;28;20047;-65
2022/10/26 11:17:05;;;;;;;7.82;3.33;;;18.10;99.90;;;;;;4967490;28;20050;-64
2022/10/26 11:19:58;;;;;;;7.78;3.30;;;18.30;99.90;;;;;;4964554;28;20049;-64
2022/10/26 11:22:28;;;;;;;7.90;3.30;;;18.20;99.90;;;;;;4968844;28;20030;-64
2022/10/26 11:25:17;;;;;;;10.57;3.45;;;18.20;99.90;;;;;;4951080;28;20051;-64
2022/10/26 11:28:01;;;;;;;6.00;3.28;;;18.40;99.90;;;;;;4959254;28;20047;-65
2022/10/26 11:30:29;;;;;;;7.18;3.55;;;18.30;99.90;;;;;;4967527;28;20035;-64
2022/10/26 11:33:04;;;;;;;6.78;3.20;;;18.50;99.90;;;;;;4967178;28;20057;-65
2022/10/26 11:35:41;;;;;;;7.78;3.55;;;18.20;99.90;;;;;;4969257;28;20105;-64
2022/10/26 11:38:28;;;;;;;7.07;3.97;;;18.60;99.90;;;;;;4960777;28;20119;-64
2022/10/26 11:40:57;;;;;;;8.93;3.60;;;18.20;99.90;;;;;;4946296;28;20090;-65
2022/10/26 11:43:46;;;;;;;7.30;3.08;;;18.10;99.90;;;;;;4964076;28;20481;-65
2022/10/26 11:46:39;;;;;;;9.57;4.05;;;18.70;99.90;;;;;;4967605;28;20493;-64
2022/10/26 11:49:19;;;;;;;4.85;2.92;;;18.30;99.90;;;;;;4968216;28;20045;-64
2022/10/26 11:51:48;;;;;;;7.32;3.50;;;18.30;99.90;;;;;;4972610;28;20039;-64
2022/10/26 11:54:23;;;;;;;9.80;3.47;;;18.50;99.90;;;;;;4972475;28;20120;-65
2022/10/26 11:56:51;;;;;;;6.13;3.40;;;18.40;99.90;;;;;;4970368;28;20041;-64
2022/10/26 11:59:21;;;;;;;10.60;4.30;;;18.70;99.90;;;;;;4971220;28;20515;-64
2022/10/26 12:01:51;;;;;;;6.43;3.70;;;19.00;99.90;;;;;;4972460;28;20046;-65
2022/10/26 12:04:20;;;;;;;8.48;4.05;;;18.60;99.90;;;;;;4950832;28;20069;-64
2022/10/26 12:06:46;;;;;;;8.35;3.58;;;18.40;99.90;;;;;;4956885;28;20067;-65
2022/10/26 12:09:18;;;;;;;7.80;3.75;;;18.60;99.90;;;;;;4936775;28;20769;-65
2022/10/26 12:12:10;;;;;;;11.27;3.88;;;18.90;99.90;;;;;;4954584;28;20075;-64
2022/10/26 12:14:58;;;;;;;7.82;3.75;;;19.10;99.90;;;;;;4935996;29;20047;-65
2022/10/26 12:17:43;;;;;;;6.20;3.30;;;19.10;99.90;;;;;;4957297;28;20069;-64
2022/10/26 12:20:20;;;;;;;6.72;3.60;;;19.20;99.90;;;;;;4969385;28;20140;-65
2022/10/26 12:22:46;;;;;;;7.30;3.15;;;19.30;99.90;;;;;;4961372;28;20050;-65
2022/10/26 12:25:14;;;;;;;6.97;3.53;;;18.80;99.90;;;;;;4955543;28;20548;-65
2022/10/26 12:27:40;;;;;;;7.18;3.72;;;18.80;99.90;;;;;;4948919;29;20047;-65
2022/10/26 12:30:17;;;;;;;8.07;3.40;;;19.40;99.90;;;;;;4953044;28;20143;-66
2022/10/26 12:32:43;;;;;;;12.02;4.00;;;18.80;99.90;;;;;;4968469;28;20501;-65
2022/10/26 12:35:30;;;;;;;12.60;4.35;;;19.00;99.90;;;;;;4953030;28;20126;-65
2022/10/26 12:37:57;;;;;;;9.05;3.80;;;19.00;99.90;;;;;;4939238;29;20066;-64
2022/10/26 12:40:39;;;;;;;7.68;3.47;;;19.60;99.90;;;;;;4956642;29;20039;-64
2022/10/26 12:43:16;;;;;;;13.27;3.78;;;19.00;99.90;;;;;;4956412;29;20039;-63
2022/10/26 12:45:45;;;;;;;13.30;4.50;;;19.30;99.90;;;;;;4956933;28;20429;-62
2022/10/26 12:48:37;;;;;;;5.68;3.03;;;19.70;99.90;;;;;;4969717;28;20049;-63
2022/10/26 12:51:19;;;;;;;11.32;3.95;;;19.20;99.90;;;;;;4946722;28;20493;-63
2022/10/26 12:53:59;;;;;;;7.93;3.50;;;19.60;99.90;;;;;;4974924;28;20055;-63
2022/10/26 12:56:41;;;;;;;11.20;3.97;;;19.50;99.90;;;;;;4975867;28;20500;-63
2022/10/26 12:59:22;;;;;;;9.40;3.45;;;19.00;99.90;;;;;;4970979;28;20041;-63
2022/10/26 13:02:36;;;;;;;6.82;3.40;;;19.10;99.90;;;;;;4962281;28;20036;-64